createdAt,value
2018-09-01T00:01:30.335Z,101214.05
2018-09-01T00:04:00.945Z,101205.96
2018-09-01T00:06:31.583Z,101214.88
2018-09-01T00:09:02.291Z,101212.84
2018-09-01T00:11:33.030Z,101212.16
2018-09-01T00:14:03.694Z,101211.36
2018-09-01T00:16:34.595Z,101209.84
2018-09-01T00:19:05.202Z,101207.00
2018-09-01T00:21:35.851Z,101216.52
2018-09-01T00:24:12.560Z,101212.25
2018-09-01T00:26:44.004Z,101219.91
2018-09-01T00:29:14.627Z,101212.50
2018-09-01T00:31:45.287Z,101211.14
2018-09-01T00:34:15.888Z,101213.44
2018-09-01T00:36:46.551Z,101210.11
2018-09-01T00:39:17.212Z,101217.23
2018-09-01T00:41:47.880Z,101217.77
2018-09-01T00:44:18.540Z,101215.16
2018-09-01T00:46:49.218Z,101220.52
2018-09-01T00:49:19.874Z,101226.33
2018-09-01T00:51:50.487Z,101227.82
2018-09-01T00:54:21.218Z,101226.16
2018-09-01T00:56:51.846Z,101224.14
2018-09-01T00:59:22.573Z,101225.53
2018-09-01T01:01:53.183Z,101224.73
2018-09-01T01:04:23.879Z,101223.48
2018-09-01T01:06:54.495Z,101223.20
2018-09-01T01:09:25.252Z,101226.39
2018-09-01T01:11:55.900Z,101227.54
2018-09-01T01:14:26.574Z,101231.67
2018-09-01T01:16:57.165Z,101228.30
2018-09-01T01:19:27.817Z,101230.20
2018-09-01T01:21:58.449Z,101229.38
2018-09-01T01:24:29.064Z,101226.80
2018-09-01T01:26:59.672Z,101233.98
2018-09-01T01:29:30.344Z,101233.28
2018-09-01T01:32:00.988Z,101232.06
2018-09-01T01:34:31.658Z,101234.93
2018-09-01T01:37:02.280Z,101233.22
2018-09-01T01:39:32.924Z,101238.25
2018-09-01T01:42:03.575Z,101233.03
2018-09-01T01:44:34.287Z,101233.58
2018-09-01T01:47:04.949Z,101235.84
2018-09-01T01:49:35.601Z,101234.61
2018-09-01T01:52:06.234Z,101233.45
2018-09-01T01:54:36.885Z,101236.31
2018-09-01T01:57:07.584Z,101239.56
2018-09-01T01:59:38.267Z,101237.05
2018-09-01T02:02:08.948Z,101239.81
2018-09-01T02:04:39.720Z,101242.48
2018-09-01T02:07:10.325Z,101239.97
2018-09-01T02:09:41.081Z,101239.55
2018-09-01T02:12:11.739Z,101240.00
2018-09-01T02:14:42.364Z,101242.19
2018-09-01T02:17:13.061Z,101246.75
2018-09-01T02:19:43.675Z,101246.75
2018-09-01T02:22:14.498Z,101250.33
2018-09-01T02:24:45.124Z,101247.23
2018-09-01T02:27:15.775Z,101246.09
2018-09-01T02:29:46.450Z,101241.45
2018-09-01T02:32:17.046Z,101244.48
2018-09-01T02:34:47.709Z,101245.44
2018-09-01T02:37:18.323Z,101248.20
2018-09-01T02:39:48.977Z,101243.77
2018-09-01T02:42:19.649Z,101245.41
2018-09-01T02:44:50.288Z,101246.38
2018-09-01T02:47:20.896Z,101251.23
2018-09-01T02:49:51.594Z,101250.84
2018-09-01T02:52:22.444Z,101246.58
2018-09-01T02:54:53.132Z,101250.63
2018-09-01T02:57:23.832Z,101245.05
2018-09-01T02:59:54.466Z,101249.84
2018-09-01T03:02:30.314Z,101246.16
2018-09-01T03:05:00.925Z,101249.09
2018-09-01T03:07:31.511Z,101249.77
2018-09-01T03:10:02.167Z,101251.08
2018-09-01T03:12:32.816Z,101247.27
2018-09-01T03:15:03.440Z,101246.16
2018-09-01T03:17:34.111Z,101253.27
2018-09-01T03:20:04.796Z,101255.09
2018-09-01T03:22:35.450Z,101255.59
2018-09-01T03:25:06.677Z,101255.11
2018-09-01T03:27:37.354Z,101257.45
2018-09-01T03:30:08.127Z,101252.59
2018-09-01T03:32:38.751Z,101253.55
2018-09-01T03:35:09.453Z,101257.06
2018-09-01T03:37:40.030Z,101264.30
2018-09-01T03:40:10.708Z,101263.52
2018-09-01T03:42:41.301Z,101261.08
2018-09-01T03:45:12.019Z,101261.16
2018-09-01T03:47:42.631Z,101263.35
2018-09-01T03:50:13.344Z,101262.54
2018-09-01T03:52:43.980Z,101265.23
2018-09-01T03:55:14.828Z,101263.05
2018-09-01T03:57:45.642Z,101271.83
2018-09-01T04:00:16.266Z,101267.95
2018-09-01T04:02:46.862Z,101271.09
2018-09-01T04:05:17.495Z,101266.94
2018-09-01T04:07:48.094Z,101265.98
2018-09-01T04:10:18.783Z,101268.95
2018-09-01T04:12:49.675Z,101265.56
2018-09-01T04:15:20.333Z,101269.44
2018-09-01T04:17:50.941Z,101271.59
2018-09-01T04:20:21.683Z,101272.72
2018-09-01T04:22:52.308Z,101275.02
2018-09-01T04:25:23.025Z,101276.34
2018-09-01T04:27:53.670Z,101279.34
2018-09-01T04:30:24.320Z,101282.31
2018-09-01T04:32:54.975Z,101280.32
2018-09-01T04:35:25.626Z,101287.13
2018-09-01T04:37:56.314Z,101281.23
2018-09-01T04:40:26.900Z,101280.78
2018-09-01T04:42:57.563Z,101294.53
2018-09-01T04:45:28.320Z,101297.67
2018-09-01T04:47:58.965Z,101297.22
2018-09-01T04:50:29.679Z,101295.46
2018-09-01T04:53:00.352Z,101296.17
2018-09-01T04:55:31.020Z,101299.81
2018-09-01T04:58:01.708Z,101303.82
2018-09-01T05:00:32.396Z,101306.95
2018-09-01T05:03:03.039Z,101305.66
2018-09-01T05:05:33.666Z,101306.48
2018-09-01T05:08:04.346Z,101308.09
2018-09-01T05:10:34.926Z,101316.39
2018-09-01T05:13:05.587Z,101314.30
2018-09-01T05:15:36.232Z,101319.94
2018-09-01T05:18:06.871Z,101316.81
2018-09-01T05:20:37.513Z,101318.10
2018-09-01T05:23:08.146Z,101325.45
2018-09-01T05:25:38.788Z,101327.06
2018-09-01T05:28:09.545Z,101332.70
2018-09-01T05:30:40.192Z,101334.84
2018-09-01T05:33:10.920Z,101335.53
2018-09-01T05:35:41.637Z,101339.84
2018-09-01T05:38:12.341Z,101341.09
2018-09-01T05:40:42.992Z,101346.26
2018-09-01T05:43:13.662Z,101348.36
2018-09-01T05:45:44.307Z,101342.00
2018-09-01T05:48:14.920Z,101346.99
2018-09-01T05:50:45.647Z,101351.63
2018-09-01T05:53:16.128Z,101356.95
2018-09-01T05:55:46.812Z,101359.27
2018-09-01T05:58:17.476Z,101363.77
2018-09-01T06:00:48.357Z,101365.19
2018-09-01T06:03:19.365Z,101373.26
2018-09-01T06:05:49.952Z,101367.73
2018-09-01T06:08:20.645Z,101379.67
2018-09-01T06:10:51.299Z,101379.39
2018-09-01T06:13:21.928Z,101383.80
2018-09-01T06:15:52.559Z,101385.16
2018-09-01T06:18:23.215Z,101387.41
2018-09-01T06:20:53.925Z,101395.27
2018-09-01T06:23:24.496Z,101393.84
2018-09-01T06:25:55.144Z,101395.55
2018-09-01T06:28:33.282Z,101394.30
2018-09-01T06:31:03.976Z,101398.09
2018-09-01T06:33:34.764Z,101396.63
2018-09-01T06:36:05.670Z,101398.39
2018-09-01T06:38:36.324Z,101389.62
2018-09-01T06:41:07.288Z,101387.25
2018-09-01T06:43:37.905Z,101392.22
2018-09-01T06:46:08.723Z,101395.55
2018-09-01T06:48:39.347Z,101398.15
2018-09-01T06:51:10.020Z,101398.25
2018-09-01T06:53:40.705Z,101401.67
2018-09-01T06:56:11.447Z,101397.88
2018-09-01T06:58:42.107Z,101392.73
2018-09-01T07:01:12.744Z,101395.42
2018-09-01T07:03:43.370Z,101397.12
2018-09-01T07:06:14.062Z,101397.52
2018-09-01T07:08:44.751Z,101407.51
2018-09-01T07:11:15.380Z,101403.45
2018-09-01T07:13:46.060Z,101407.47
2018-09-01T07:16:16.732Z,101405.73
2018-09-01T07:18:47.425Z,101406.47
2018-09-01T07:21:18.151Z,101406.44
2018-09-01T07:23:48.783Z,101406.23
2018-09-01T07:26:19.414Z,101406.37
2018-09-01T07:28:50.083Z,101408.95
2018-09-01T07:31:21.208Z,101415.04
2018-09-01T07:33:51.500Z,101418.86
2018-09-01T07:36:22.238Z,101419.36
2018-09-01T07:38:52.915Z,101420.80
2018-09-01T07:41:23.572Z,101420.80
2018-09-01T07:43:54.231Z,101422.86
2018-09-01T07:46:24.850Z,101423.81
2018-09-01T07:48:55.543Z,101426.89
2018-09-01T07:51:26.235Z,101429.19
2018-09-01T07:53:56.868Z,101434.98
2018-09-01T07:56:27.526Z,101436.82
2018-09-01T07:58:58.220Z,101441.28
2018-09-01T08:01:28.934Z,101445.66
2018-09-01T08:03:59.614Z,101439.22
2018-09-01T08:06:30.259Z,101442.99
2018-09-01T08:09:00.905Z,101449.61
2018-09-01T08:11:31.629Z,101447.22
2018-09-01T08:14:02.416Z,101451.20
2018-09-01T08:16:32.998Z,101448.98
2018-09-01T08:19:03.672Z,101449.20
2018-09-01T08:21:34.320Z,101456.66
2018-09-01T08:24:05.076Z,101452.31
2018-09-01T08:26:35.760Z,101457.11
2018-09-01T08:29:06.597Z,101458.79
2018-09-01T08:31:37.314Z,101455.59
2018-09-01T08:34:08.008Z,101452.59
2018-09-01T08:36:38.649Z,101452.21
2018-09-01T08:39:10.033Z,101454.67
2018-09-01T08:41:40.755Z,101458.73
2018-09-01T08:44:11.497Z,101459.03
2018-09-01T08:46:42.355Z,101458.39
2018-09-01T08:49:13.015Z,101467.36
2018-09-01T08:51:43.686Z,101465.22
2018-09-01T08:54:14.348Z,101467.45
2018-09-01T08:56:45.023Z,101469.46
2018-09-01T08:59:15.679Z,101469.46
2018-09-01T09:01:46.327Z,101468.05
2018-09-01T09:04:17.008Z,101476.25
2018-09-01T09:06:47.643Z,101477.20
2018-09-01T09:09:18.311Z,101475.30
2018-09-01T09:11:49.059Z,101474.69
2018-09-01T09:14:19.732Z,101479.25
2018-09-01T09:16:50.484Z,101476.02
2018-09-01T09:19:21.133Z,101476.44
2018-09-01T09:21:52.146Z,101470.61
2018-09-01T09:24:22.803Z,101474.14
2018-09-01T09:26:53.454Z,101469.08
2018-09-01T09:29:24.192Z,101467.91
2018-09-01T09:31:55.023Z,101467.28
2018-09-01T09:34:25.691Z,101470.56
2018-09-01T09:36:56.467Z,101473.05
2018-09-01T09:39:27.114Z,101474.19
2018-09-01T09:41:57.942Z,101473.63
2018-09-01T09:44:28.776Z,101473.33
2018-09-01T09:46:59.776Z,101481.37
2018-09-01T09:49:30.536Z,101484.50
2018-09-01T09:52:01.160Z,101486.33
2018-09-01T09:54:31.900Z,101471.91
2018-09-01T09:57:02.542Z,101467.64
2018-09-01T09:59:33.220Z,101471.70
2018-09-01T10:02:05.443Z,101472.41
2018-09-01T10:04:36.070Z,101468.81
2018-09-01T10:07:06.835Z,101464.20
2018-09-01T10:09:37.665Z,101461.12
2018-09-01T10:12:08.923Z,101467.14
2018-09-01T10:14:39.632Z,101467.40
2018-09-01T10:17:10.326Z,101474.73
2018-09-01T10:19:41.156Z,101476.34
2018-09-01T10:22:11.910Z,101469.20
2018-09-01T10:24:42.588Z,101469.91
2018-09-01T10:27:13.308Z,101468.91
2018-09-01T10:29:44.021Z,101464.72
2018-09-01T10:32:14.740Z,101466.08
2018-09-01T10:34:45.489Z,101472.52
2018-09-01T10:37:16.133Z,101464.61
2018-09-01T10:39:46.757Z,101466.35
2018-09-01T10:42:17.405Z,101464.91
2018-09-01T10:44:48.083Z,101466.15
2018-09-01T10:47:18.730Z,101469.78
2018-09-01T10:49:49.417Z,101458.36
2018-09-01T10:52:20.436Z,101455.50
2018-09-01T10:54:51.108Z,101462.08
2018-09-01T10:57:21.806Z,101449.50
2018-09-01T10:59:52.551Z,101452.00
2018-09-01T11:02:23.262Z,101448.30
2018-09-01T11:04:53.898Z,101451.42
2018-09-01T11:07:24.895Z,101443.64
2018-09-01T11:09:55.553Z,101447.95
2018-09-01T11:12:26.191Z,101446.33
2018-09-01T11:14:56.860Z,101442.59
2018-09-01T11:17:27.640Z,101433.87
2018-09-01T11:19:58.279Z,101441.18
2018-09-01T11:22:29.052Z,101436.86
2018-09-01T11:24:59.749Z,101431.58
2018-09-01T11:27:30.544Z,101429.72
2018-09-01T11:30:01.172Z,101429.77
2018-09-01T11:32:31.872Z,101427.67
2018-09-01T11:35:02.493Z,101416.92
2018-09-01T11:37:33.140Z,101420.15
2018-09-01T11:40:03.857Z,101425.89
2018-09-01T11:42:34.677Z,101416.34
2018-09-01T11:45:05.354Z,101413.52
2018-09-01T11:47:36.018Z,101413.97
2018-09-01T11:50:06.830Z,101415.41
2018-09-01T11:52:37.551Z,101417.06
2018-09-01T11:55:08.398Z,101425.69
2018-09-01T11:57:39.127Z,101422.58
2018-09-01T12:00:09.863Z,101426.73
2018-09-01T12:02:40.563Z,101424.22
2018-09-01T12:05:11.243Z,101432.50
2018-09-01T12:07:41.893Z,101428.97
2018-09-01T12:10:12.563Z,101421.97
2018-09-01T12:12:43.227Z,101421.58
2018-09-01T12:15:13.842Z,101414.98
2018-09-01T12:17:44.526Z,101412.92
2018-09-01T12:20:15.235Z,101416.72
2018-09-01T12:22:45.867Z,101407.47
2018-09-01T12:25:16.476Z,101407.80
2018-09-01T12:27:47.137Z,101402.17
2018-09-01T12:30:17.808Z,101406.48
2018-09-01T12:32:48.494Z,101405.23
2018-09-01T12:35:19.139Z,101402.75
2018-09-01T12:37:49.826Z,101403.59
2018-09-01T12:40:20.491Z,101401.28
2018-09-01T12:42:51.257Z,101397.61
2018-09-01T12:45:21.869Z,101387.71
2018-09-01T12:47:52.696Z,101382.53
2018-09-01T12:50:23.429Z,101374.62
2018-09-01T12:52:54.139Z,101380.37
2018-09-01T12:55:24.797Z,101375.83
2018-09-01T12:57:55.409Z,101370.70
2018-09-01T13:00:26.081Z,101370.77
2018-09-01T13:02:56.829Z,101368.68
2018-09-01T13:05:27.509Z,101373.77
2018-09-01T13:07:58.157Z,101375.78
2018-09-01T13:10:28.829Z,101373.57
2018-09-01T13:12:59.522Z,101370.36
2018-09-01T13:15:30.209Z,101373.14
2018-09-01T13:18:00.841Z,101378.83
2018-09-01T13:20:31.566Z,101372.41
2018-09-01T13:23:02.360Z,101373.48
2018-09-01T13:25:33.096Z,101381.83
2018-09-01T13:28:03.857Z,101378.55
2018-09-01T13:30:34.563Z,101374.28
2018-09-01T13:33:05.283Z,101369.70
2018-09-01T13:35:36.024Z,101368.52
2018-09-01T13:38:06.780Z,101362.26
2018-09-01T13:40:37.869Z,101369.37
2018-09-01T13:43:08.610Z,101372.95
2018-09-01T13:45:39.502Z,101378.55
2018-09-01T13:48:11.523Z,101379.88
2018-09-01T13:50:42.555Z,101381.41
2018-09-01T13:53:13.711Z,101384.02
2018-09-01T13:55:44.424Z,101377.52
2018-09-01T13:58:46.068Z,101379.81
2018-09-01T14:01:16.735Z,101373.34
2018-09-01T14:03:47.846Z,101372.62
2018-09-01T14:06:18.712Z,101380.67
2018-09-01T14:08:49.780Z,101379.28
2018-09-01T14:11:20.584Z,101382.56
2018-09-01T14:13:51.256Z,101377.62
2018-09-01T14:16:22.053Z,101373.48
2018-09-01T14:18:52.896Z,101373.95
2018-09-01T14:21:23.815Z,101379.47
2018-09-01T14:23:55.163Z,101380.38
2018-09-01T14:26:25.919Z,101383.75
2018-09-01T14:28:57.449Z,101377.06
2018-09-01T14:31:28.315Z,101373.58
2018-09-01T14:33:58.968Z,101374.19
2018-09-01T14:36:29.782Z,101370.42
2018-09-01T14:39:00.522Z,101367.02
2018-09-01T14:41:31.659Z,101361.48
2018-09-01T14:44:02.661Z,101357.34
2018-09-01T14:46:33.468Z,101361.99
2018-09-01T14:49:04.162Z,101351.39
2018-09-01T14:51:35.249Z,101351.97
2018-09-01T14:54:06.078Z,101349.84
2018-09-01T14:56:37.409Z,101341.56
2018-09-01T14:59:09.064Z,101339.89
2018-09-01T15:01:39.691Z,101336.90
2018-09-01T15:04:10.888Z,101337.33
2018-09-01T15:06:42.436Z,101337.48
2018-09-01T15:09:13.127Z,101349.11
2018-09-01T15:11:44.085Z,101350.45
2018-09-01T15:14:15.237Z,101354.44
2018-09-01T15:16:46.027Z,101355.08
2018-09-01T15:19:16.823Z,101355.34
2018-09-01T15:21:47.601Z,101359.06
2018-09-01T15:24:18.631Z,101362.44
2018-09-01T15:26:49.862Z,101356.20
2018-09-01T15:29:21.145Z,101352.11
2018-09-01T15:31:52.314Z,101357.73
2018-09-01T15:34:23.550Z,101350.08
2018-09-01T15:36:54.292Z,101344.88
2018-09-01T15:39:25.113Z,101346.56
2018-09-01T15:41:56.485Z,101344.59
2018-09-01T15:44:27.399Z,101346.67
2018-09-01T15:46:58.144Z,101343.07
2018-09-01T15:49:28.795Z,101346.55
2018-09-01T15:51:59.479Z,101346.03
2018-09-01T15:54:30.142Z,101346.76
2018-09-01T15:57:00.826Z,101338.61
2018-09-01T15:59:31.460Z,101335.66
2018-09-01T16:02:02.171Z,101340.66
2018-09-01T16:04:32.820Z,101335.56
2018-09-01T16:07:03.576Z,101331.06
2018-09-01T16:09:34.269Z,101335.56
2018-09-01T16:12:04.919Z,101338.32
2018-09-01T16:14:35.560Z,101326.38
2018-09-01T16:17:06.791Z,101333.09
2018-09-01T16:19:37.465Z,101326.91
2018-09-01T16:22:08.133Z,101329.52
2018-09-01T16:24:38.834Z,101333.78
2018-09-01T16:27:09.571Z,101331.58
2018-09-01T16:29:40.288Z,101332.13
2018-09-01T16:32:10.967Z,101338.78
2018-09-01T16:34:41.683Z,101336.48
2018-09-01T16:37:12.351Z,101339.18
2018-09-01T16:39:43.075Z,101332.02
2018-09-01T16:42:13.767Z,101338.21
2018-09-01T16:44:44.463Z,101338.14
2018-09-01T16:47:15.134Z,101332.27
2018-09-01T16:49:45.836Z,101339.03
2018-09-01T16:52:16.579Z,101338.53
2018-09-01T16:54:47.228Z,101337.58
2018-09-01T16:57:17.876Z,101347.96
2018-09-01T16:59:48.652Z,101347.96
2018-09-01T17:02:19.283Z,101349.68
2018-09-01T17:04:49.957Z,101347.41
2018-09-01T17:07:20.576Z,101351.54
2018-09-01T17:09:51.351Z,101354.29
2018-09-01T17:12:22.046Z,101350.31
2018-09-01T17:14:52.750Z,101352.34
2018-09-01T17:17:23.371Z,101358.05
2018-09-01T17:19:54.093Z,101357.38
2018-09-01T17:22:24.708Z,101357.42
2018-09-01T17:24:55.458Z,101362.45
2018-09-01T17:27:26.182Z,101365.40
2018-09-01T17:29:56.832Z,101363.05
2018-09-01T17:32:27.553Z,101364.17
2018-09-01T17:34:58.160Z,101369.70
2018-09-01T17:37:28.835Z,101369.39
2018-09-01T17:39:59.459Z,101373.03
2018-09-01T17:42:30.143Z,101376.34
2018-09-01T17:45:00.865Z,101372.01
2018-09-01T17:47:31.504Z,101373.58
2018-09-01T17:50:02.171Z,101370.86
2018-09-01T17:52:32.833Z,101372.90
2018-09-01T17:55:03.627Z,101372.02
2018-09-01T17:57:34.399Z,101370.23
2018-09-01T18:00:05.192Z,101379.50
2018-09-01T18:02:35.894Z,101370.92
2018-09-01T18:05:06.841Z,101378.97
2018-09-01T18:07:37.645Z,101368.51
2018-09-01T18:10:08.350Z,101374.34
2018-09-01T18:12:39.034Z,101371.44
2018-09-01T18:15:09.775Z,101371.45
2018-09-01T18:17:40.478Z,101379.37
2018-09-01T18:20:11.161Z,101372.87
2018-09-01T18:22:41.832Z,101379.20
2018-09-01T18:25:12.553Z,101375.48
2018-09-01T18:27:43.187Z,101378.25
2018-09-01T18:31:17.101Z,101376.63
2018-09-01T18:33:47.851Z,101382.63
2018-09-01T18:36:18.615Z,101384.99
2018-09-01T18:38:49.275Z,101390.89
2018-09-01T18:41:19.971Z,101389.47
2018-09-01T18:43:50.617Z,101388.28
2018-09-01T18:46:21.332Z,101394.83
2018-09-01T18:48:52.021Z,101389.00
2018-09-01T18:51:22.658Z,101389.17
2018-09-01T18:53:59.827Z,101397.95
2018-09-01T18:56:30.538Z,101388.11
2018-09-01T18:59:01.255Z,101390.55
2018-09-01T19:01:31.993Z,101394.91
2018-09-01T19:04:02.671Z,101396.15
2018-09-01T19:06:33.350Z,101394.31
2018-09-01T19:09:05.785Z,101395.14
2018-09-01T19:11:37.017Z,101395.97
2018-09-01T19:14:07.695Z,101395.27
2018-09-01T19:16:38.393Z,101398.28
2018-09-01T19:19:09.108Z,101401.21
2018-09-01T19:21:39.770Z,101403.17
2018-09-01T19:24:10.529Z,101406.96
2018-09-01T19:26:41.231Z,101410.13
2018-09-01T19:29:11.949Z,101409.87
2018-09-01T19:31:42.774Z,101400.88
2018-09-01T19:34:13.541Z,101406.86
2018-09-01T19:36:44.213Z,101405.22
2018-09-01T19:39:14.905Z,101410.24
2018-09-01T19:41:45.588Z,101416.50
2018-09-01T19:44:16.298Z,101411.36
2018-09-01T19:46:47.022Z,101405.32
2018-09-01T19:49:17.719Z,101405.52
2018-09-01T19:51:48.529Z,101409.51
2018-09-01T19:54:19.238Z,101405.83
2018-09-01T19:56:50.000Z,101400.50
2018-09-01T19:59:20.736Z,101403.50
2018-09-01T20:01:51.425Z,101399.39
2018-09-01T20:04:22.165Z,101404.31
2018-09-01T20:06:52.899Z,101406.73
2018-09-01T20:09:23.595Z,101407.38
2018-09-01T20:11:54.427Z,101406.20
2018-09-01T20:14:25.311Z,101405.02
2018-09-01T20:16:56.001Z,101405.02
2018-09-01T20:19:26.741Z,101402.55
2018-09-01T20:21:57.421Z,101409.35
2018-09-01T20:24:28.085Z,101408.48
2018-09-01T20:26:58.820Z,101413.53
2018-09-01T20:29:29.522Z,101415.94
2018-09-01T20:32:00.298Z,101418.84
2018-09-01T20:34:30.983Z,101425.50
2018-09-01T20:37:01.668Z,101424.27
2018-09-01T20:39:32.453Z,101425.84
2018-09-01T20:42:03.182Z,101424.74
2018-09-01T20:44:33.871Z,101422.27
2018-09-01T20:47:05.015Z,101426.18
2018-09-01T20:49:35.677Z,101428.12
2018-09-01T20:52:06.539Z,101430.23
2018-09-01T20:54:37.177Z,101428.42
2018-09-01T20:57:08.104Z,101432.18
2018-09-01T20:59:38.857Z,101427.09
2018-09-01T21:02:09.660Z,101432.09
2018-09-01T21:04:40.357Z,101429.12
2018-09-01T21:07:11.033Z,101422.70
2018-09-01T21:09:41.727Z,101432.41
2018-09-01T21:12:12.488Z,101423.56
2018-09-01T21:14:43.188Z,101432.41
2018-09-01T21:17:13.892Z,101427.70
2018-09-01T21:19:44.579Z,101427.23
2018-09-01T21:22:15.359Z,101428.80
2018-09-01T21:24:46.170Z,101431.55
2018-09-01T21:27:16.823Z,101429.20
2018-09-01T21:29:47.518Z,101428.94
2018-09-01T21:32:18.227Z,101426.69
2018-09-01T21:34:48.910Z,101431.14
2018-09-01T21:37:19.583Z,101421.78
2018-09-01T21:39:50.308Z,101426.28
2018-09-01T21:42:21.029Z,101424.58
2018-09-01T21:44:51.727Z,101432.47
2018-09-01T21:47:22.489Z,101434.75
2018-09-01T21:49:53.198Z,101426.28
2018-09-01T21:52:23.914Z,101424.58
2018-09-01T21:54:54.613Z,101429.98
2018-09-01T21:57:25.354Z,101437.09
2018-09-01T21:59:56.097Z,101430.67
2018-09-01T22:02:27.543Z,101438.11
2018-09-01T22:05:03.412Z,101425.36
2018-09-01T22:07:34.179Z,101423.80
2018-09-01T22:10:05.077Z,101435.22
2018-09-01T22:12:36.022Z,101435.21
2018-09-01T22:15:07.574Z,101433.41
2018-09-01T22:17:38.318Z,101423.94
2018-09-01T22:20:09.013Z,101431.91
2018-09-01T22:22:39.769Z,101431.22
2018-09-01T22:25:10.416Z,101428.84
2018-09-01T22:27:41.160Z,101429.56
2018-09-01T22:30:11.921Z,101434.64
2018-09-01T22:32:42.592Z,101431.80
2018-09-01T22:35:13.402Z,101428.37
2018-09-01T22:37:44.074Z,101432.36
2018-09-01T22:40:14.824Z,101434.09
2018-09-01T22:42:45.478Z,101432.81
2018-09-01T22:45:16.195Z,101420.62
2018-09-01T22:47:46.911Z,101424.45
2018-09-01T22:50:17.625Z,101427.48
2018-09-01T22:52:48.321Z,101425.13
2018-09-01T22:55:19.048Z,101425.48
2018-09-01T22:57:49.676Z,101427.38
2018-09-01T23:00:20.365Z,101426.91
2018-09-01T23:02:51.092Z,101425.93
2018-09-01T23:05:21.805Z,101430.89
2018-09-01T23:07:52.443Z,101431.98
2018-09-01T23:10:23.221Z,101428.43
2018-09-01T23:12:53.943Z,101432.79
2018-09-01T23:15:24.596Z,101428.97
2018-09-01T23:17:55.273Z,101435.91
2018-09-01T23:20:26.004Z,101432.50
2018-09-01T23:22:56.693Z,101433.87
2018-09-01T23:25:27.338Z,101435.45
2018-09-01T23:27:58.029Z,101436.50
2018-09-01T23:30:28.724Z,101436.44
2018-09-01T23:32:59.427Z,101432.53
2018-09-01T23:35:30.151Z,101429.63
2018-09-01T23:38:00.833Z,101434.37
2018-09-01T23:40:31.476Z,101435.20
2018-09-01T23:43:02.151Z,101434.94
2018-09-01T23:45:32.830Z,101431.47
2018-09-01T23:48:03.515Z,101433.34
2018-09-01T23:50:34.236Z,101438.34
2018-09-01T23:53:04.953Z,101433.41
2018-09-01T23:55:35.612Z,101433.20
2018-09-01T23:58:06.816Z,101435.74
